createdAt,value
2018-03-17T00:00:03.317Z,988.61
2018-03-17T00:01:03.280Z,988.64
2018-03-17T00:02:56.132Z,988.66
2018-03-17T00:03:56.108Z,988.57
2018-03-17T00:05:48.975Z,988.62
2018-03-17T00:06:48.939Z,988.62
2018-03-17T00:08:41.787Z,988.59
2018-03-17T00:09:41.768Z,988.56
2018-03-17T00:11:34.635Z,988.57
2018-03-17T00:12:34.635Z,988.59
2018-03-17T00:14:27.454Z,988.55
2018-03-17T00:15:27.435Z,988.54
2018-03-17T00:17:20.301Z,988.51
2018-03-17T00:18:20.264Z,988.50
2018-03-17T00:20:13.115Z,988.44
2018-03-17T00:21:13.095Z,988.45
2018-03-17T00:23:05.987Z,988.43
2018-03-17T00:24:05.923Z,988.42
2018-03-17T00:25:58.774Z,988.42
2018-03-17T00:26:58.756Z,988.42
2018-03-17T00:28:51.625Z,988.43
2018-03-17T00:29:51.588Z,988.45
2018-03-17T00:31:44.450Z,988.46
2018-03-17T00:32:44.429Z,988.45
2018-03-17T00:34:37.295Z,988.41
2018-03-17T00:35:37.257Z,988.40
2018-03-17T00:37:30.107Z,988.37
2018-03-17T00:38:30.084Z,988.40
2018-03-17T00:40:22.948Z,988.41
2018-03-17T00:41:22.914Z,988.41
2018-03-17T00:43:15.838Z,988.42
2018-03-17T00:44:15.744Z,988.49
2018-03-17T00:46:08.610Z,988.47
2018-03-17T00:47:08.573Z,988.52
2018-03-17T00:49:01.429Z,988.53
2018-03-17T00:50:01.401Z,988.58
2018-03-17T00:51:54.273Z,988.63
2018-03-17T00:52:54.229Z,988.60
2018-03-17T00:54:47.084Z,988.69
2018-03-17T00:55:47.064Z,988.71
2018-03-17T00:57:40.005Z,988.71
2018-03-17T00:58:39.896Z,988.66
2018-03-17T01:00:32.752Z,988.62
2018-03-17T01:01:32.730Z,988.68
2018-03-17T01:03:25.604Z,988.58
2018-03-17T01:04:25.563Z,988.57
2018-03-17T01:06:18.412Z,988.53
2018-03-17T01:07:18.406Z,988.48
2018-03-17T01:09:11.256Z,988.53
2018-03-17T01:10:11.223Z,988.49
2018-03-17T01:12:04.078Z,988.52
2018-03-17T01:13:04.055Z,988.47
2018-03-17T01:14:56.920Z,988.48
2018-03-17T01:15:56.888Z,988.42
2018-03-17T01:17:49.742Z,988.45
2018-03-17T01:18:49.718Z,988.42
2018-03-17T01:20:42.581Z,988.44
2018-03-17T01:21:42.542Z,988.44
2018-03-17T01:23:35.408Z,988.42
2018-03-17T01:24:35.409Z,988.41
2018-03-17T01:26:28.245Z,988.40
2018-03-17T01:27:28.209Z,988.40
2018-03-17T01:29:21.065Z,988.38
2018-03-17T01:30:21.051Z,988.36
2018-03-17T01:32:13.907Z,988.32
2018-03-17T01:33:13.872Z,988.29
2018-03-17T01:35:06.721Z,988.31
2018-03-17T01:36:06.702Z,988.32
2018-03-17T01:37:59.571Z,988.29
2018-03-17T01:38:59.530Z,988.34
2018-03-17T01:40:52.412Z,988.29
2018-03-17T01:41:52.389Z,988.30
2018-03-17T01:43:45.303Z,988.22
2018-03-17T01:44:45.267Z,988.21
2018-03-17T01:46:38.155Z,988.12
2018-03-17T01:47:38.101Z,988.13
2018-03-17T01:49:31.016Z,988.12
2018-03-17T01:50:30.933Z,988.11
2018-03-17T01:52:23.785Z,988.09
2018-03-17T01:53:23.763Z,988.13
2018-03-17T01:55:16.627Z,988.10
2018-03-17T01:56:16.600Z,988.05
2018-03-17T01:58:09.444Z,988.07
2018-03-17T01:59:09.419Z,988.01
2018-03-17T02:01:02.288Z,988.03
2018-03-17T02:02:02.250Z,988.06
2018-03-17T02:03:55.101Z,987.98
2018-03-17T02:04:55.078Z,988.00
2018-03-17T02:06:47.944Z,987.99
2018-03-17T02:07:47.906Z,987.98
2018-03-17T02:09:40.758Z,988.02
2018-03-17T02:10:40.737Z,988.02
2018-03-17T02:12:33.601Z,988.03
2018-03-17T02:13:33.577Z,988.03
2018-03-17T02:15:26.430Z,988.00
2018-03-17T02:16:26.399Z,988.01
2018-03-17T02:18:19.265Z,988.05
2018-03-17T02:19:19.227Z,988.02
2018-03-17T02:21:12.079Z,987.96
2018-03-17T02:22:12.066Z,988.00
2018-03-17T02:24:04.923Z,987.94
2018-03-17T02:25:04.886Z,987.92
2018-03-17T02:26:57.732Z,987.91
2018-03-17T02:27:57.713Z,987.90
2018-03-17T02:29:50.577Z,987.84
2018-03-17T02:30:50.545Z,987.84
2018-03-17T02:32:43.397Z,987.82
2018-03-17T02:33:43.373Z,987.82
2018-03-17T02:35:36.240Z,987.80
2018-03-17T02:36:36.202Z,987.80
2018-03-17T02:38:29.050Z,987.82
2018-03-17T02:39:29.028Z,987.79
2018-03-17T02:41:21.893Z,987.74
2018-03-17T02:42:21.858Z,987.78
2018-03-17T02:44:14.712Z,987.76
2018-03-17T02:45:14.693Z,987.77
2018-03-17T02:47:07.555Z,987.74
2018-03-17T02:48:07.520Z,987.70
2018-03-17T02:50:00.371Z,987.71
2018-03-17T02:51:00.349Z,987.69
2018-03-17T02:52:53.211Z,987.74
2018-03-17T02:53:53.177Z,987.74
2018-03-17T02:55:46.026Z,987.73
2018-03-17T02:56:46.005Z,987.73
2018-03-17T02:58:38.888Z,987.74
2018-03-17T02:59:38.841Z,987.71
2018-03-17T03:01:31.688Z,987.78
2018-03-17T03:02:31.665Z,987.75
2018-03-17T03:04:24.529Z,987.75
2018-03-17T03:05:24.492Z,987.83
2018-03-17T03:07:17.343Z,987.79
2018-03-17T03:08:17.318Z,987.79
2018-03-17T03:10:10.182Z,987.75
2018-03-17T03:11:10.146Z,987.77
2018-03-17T03:13:02.996Z,987.77
2018-03-17T03:14:02.975Z,987.73
2018-03-17T03:15:55.838Z,987.76
2018-03-17T03:16:55.801Z,987.74
2018-03-17T03:18:48.650Z,987.78
2018-03-17T03:19:48.628Z,987.76
2018-03-17T03:21:41.497Z,987.77
2018-03-17T03:22:41.472Z,987.78
2018-03-17T03:24:34.320Z,987.80
2018-03-17T03:25:34.335Z,987.73
2018-03-17T03:27:27.165Z,987.71
2018-03-17T03:28:27.135Z,987.71
2018-03-17T03:30:19.969Z,987.74
2018-03-17T03:31:19.950Z,987.73
2018-03-17T03:33:12.816Z,987.77
2018-03-17T03:34:12.774Z,987.77
2018-03-17T03:36:05.628Z,987.75
2018-03-17T03:37:05.609Z,987.74
2018-03-17T03:38:58.475Z,987.74
2018-03-17T03:39:58.440Z,987.74
2018-03-17T03:41:51.782Z,987.73
2018-03-17T03:42:51.756Z,987.68
2018-03-17T03:44:45.172Z,987.67
2018-03-17T03:45:45.084Z,987.64
2018-03-17T03:47:37.928Z,987.70
2018-03-17T03:48:37.909Z,987.69
2018-03-17T03:50:30.772Z,987.68
2018-03-17T03:51:30.735Z,987.70
2018-03-17T03:53:23.583Z,987.65
2018-03-17T03:54:23.564Z,987.65
2018-03-17T03:56:16.447Z,987.67
2018-03-17T03:57:16.438Z,987.63
2018-03-17T03:59:09.247Z,987.67
2018-03-17T04:00:09.238Z,987.65
2018-03-17T04:02:02.668Z,987.68
2018-03-17T04:03:02.047Z,987.67
2018-03-17T04:04:54.895Z,987.68
2018-03-17T04:05:54.878Z,987.69
2018-03-17T04:07:47.764Z,987.64
2018-03-17T04:08:47.703Z,987.64
2018-03-17T04:10:40.555Z,987.65
2018-03-17T04:11:40.532Z,987.68
2018-03-17T04:13:33.401Z,987.65
2018-03-17T04:14:33.365Z,987.68
2018-03-17T04:16:26.216Z,987.71
2018-03-17T04:17:26.191Z,987.70
2018-03-17T04:19:19.062Z,987.68
2018-03-17T04:20:19.022Z,987.69
2018-03-17T04:22:11.875Z,987.68
2018-03-17T04:23:11.857Z,987.62
2018-03-17T04:25:04.717Z,987.67
2018-03-17T04:26:04.682Z,987.70
2018-03-17T04:27:57.528Z,987.63
2018-03-17T04:28:57.505Z,987.63
2018-03-17T04:30:50.369Z,987.62
2018-03-17T04:31:50.335Z,987.61
2018-03-17T04:33:43.184Z,987.63
2018-03-17T04:34:43.160Z,987.62
2018-03-17T04:36:36.029Z,987.61
2018-03-17T04:37:35.991Z,987.58
2018-03-17T04:39:28.830Z,987.53
2018-03-17T04:40:28.809Z,987.58
2018-03-17T04:42:21.678Z,987.57
2018-03-17T04:43:21.636Z,987.57
2018-03-17T04:45:14.975Z,987.61
2018-03-17T04:46:14.954Z,987.60
2018-03-17T04:48:07.850Z,987.61
2018-03-17T04:49:07.810Z,987.60
2018-03-17T04:51:00.681Z,987.59
2018-03-17T04:52:00.657Z,987.59
2018-03-17T04:53:53.616Z,987.59
2018-03-17T04:54:53.480Z,987.57
2018-03-17T04:56:46.338Z,987.55
2018-03-17T04:57:46.308Z,987.50
2018-03-17T04:59:39.170Z,987.53
2018-03-17T05:00:39.134Z,987.48
2018-03-17T05:02:32.001Z,987.52
2018-03-17T05:03:31.956Z,987.51
2018-03-17T05:05:24.825Z,987.56
2018-03-17T05:06:24.779Z,987.53
2018-03-17T05:08:18.125Z,987.55
2018-03-17T05:09:18.099Z,987.49
2018-03-17T05:11:10.969Z,987.53
2018-03-17T05:12:10.923Z,987.56
2018-03-17T05:14:03.773Z,987.56
2018-03-17T05:15:03.751Z,987.59
2018-03-17T05:16:56.621Z,987.58
2018-03-17T05:17:56.573Z,987.57
2018-03-17T05:19:49.417Z,987.55
2018-03-17T05:20:49.400Z,987.54
2018-03-17T05:22:42.259Z,987.58
2018-03-17T05:23:42.225Z,987.56
2018-03-17T05:25:35.068Z,987.56
2018-03-17T05:26:35.045Z,987.53
2018-03-17T05:28:27.912Z,987.52
2018-03-17T05:29:27.870Z,987.54
2018-03-17T05:31:20.715Z,987.46
2018-03-17T05:32:20.692Z,987.51
2018-03-17T05:34:13.561Z,987.55
2018-03-17T05:35:13.527Z,987.58
2018-03-17T05:37:06.373Z,987.51
2018-03-17T05:38:06.344Z,987.54
2018-03-17T05:39:59.207Z,987.49
2018-03-17T05:40:59.169Z,987.45
2018-03-17T05:42:52.019Z,987.46
2018-03-17T05:43:52.022Z,987.45
2018-03-17T05:45:44.862Z,987.42
2018-03-17T05:46:44.905Z,987.46
2018-03-17T05:48:37.672Z,987.44
2018-03-17T05:49:37.646Z,987.46
2018-03-17T05:51:30.507Z,987.40
2018-03-17T05:52:30.470Z,987.42
2018-03-17T05:54:23.321Z,987.35
2018-03-17T05:55:23.324Z,987.36
2018-03-17T05:57:16.161Z,987.37
2018-03-17T05:58:16.124Z,987.38
2018-03-17T06:00:08.974Z,987.32
2018-03-17T06:01:08.948Z,987.36
2018-03-17T06:03:01.818Z,987.42
2018-03-17T06:04:01.776Z,987.40
2018-03-17T06:05:54.618Z,987.39
2018-03-17T06:06:54.593Z,987.42
2018-03-17T06:08:47.470Z,987.42
2018-03-17T06:09:47.417Z,987.44
2018-03-17T06:11:40.264Z,987.44
2018-03-17T06:12:40.240Z,987.44
2018-03-17T06:14:33.104Z,987.48
2018-03-17T06:15:33.071Z,987.46
2018-03-17T06:17:25.915Z,987.47
2018-03-17T06:18:25.892Z,987.48
2018-03-17T06:20:18.766Z,987.49
2018-03-17T06:21:18.721Z,987.45
2018-03-17T06:23:11.564Z,987.43
2018-03-17T06:24:11.540Z,987.42
2018-03-17T06:26:04.405Z,987.42
2018-03-17T06:27:04.366Z,987.36
2018-03-17T06:28:57.215Z,987.37
2018-03-17T06:29:57.191Z,987.36
2018-03-17T06:31:50.050Z,987.37
2018-03-17T06:32:50.013Z,987.37
2018-03-17T06:34:42.860Z,987.31
2018-03-17T06:35:42.834Z,987.38
2018-03-17T06:37:35.700Z,987.28
2018-03-17T06:38:35.656Z,987.35
2018-03-17T06:40:28.500Z,987.31
2018-03-17T06:41:28.477Z,987.29
2018-03-17T06:43:21.340Z,987.28
2018-03-17T06:44:21.300Z,987.25
2018-03-17T06:46:14.145Z,987.22
2018-03-17T06:47:14.123Z,987.21
2018-03-17T06:49:06.985Z,987.22
2018-03-17T06:50:06.948Z,987.23
2018-03-17T06:51:59.792Z,987.24
2018-03-17T06:52:59.768Z,987.20
2018-03-17T06:54:52.640Z,987.21
2018-03-17T06:55:52.590Z,987.19
2018-03-17T06:57:45.435Z,987.22
2018-03-17T06:58:45.410Z,987.20
2018-03-17T07:00:38.308Z,987.19
2018-03-17T07:01:38.261Z,987.22
2018-03-17T07:03:31.083Z,987.15
2018-03-17T07:04:31.062Z,987.18
2018-03-17T07:06:23.920Z,987.16
2018-03-17T07:07:23.880Z,987.20
2018-03-17T07:09:16.731Z,987.22
2018-03-17T07:10:16.739Z,987.25
2018-03-17T07:12:09.567Z,987.25
2018-03-17T07:13:09.527Z,987.25
2018-03-17T07:15:02.380Z,987.27
2018-03-17T07:16:02.387Z,987.28
2018-03-17T07:17:55.214Z,987.30
2018-03-17T07:18:55.179Z,987.35
2018-03-17T07:20:48.021Z,987.39
2018-03-17T07:21:47.995Z,987.40
2018-03-17T07:23:40.866Z,987.43
2018-03-17T07:24:40.820Z,987.42
2018-03-17T07:26:33.665Z,987.41
2018-03-17T07:27:33.638Z,987.40
2018-03-17T07:29:26.500Z,987.43
2018-03-17T07:30:26.459Z,987.40
2018-03-17T07:32:19.308Z,987.36
2018-03-17T07:33:19.282Z,987.41
2018-03-17T07:35:12.142Z,987.35
2018-03-17T07:36:12.104Z,987.37
2018-03-17T07:38:04.955Z,987.36
2018-03-17T07:39:04.928Z,987.38
2018-03-17T07:40:57.788Z,987.38
2018-03-17T07:41:57.750Z,987.34
2018-03-17T07:43:50.594Z,987.33
2018-03-17T07:44:50.573Z,987.29
2018-03-17T07:46:43.457Z,987.30
2018-03-17T07:47:43.420Z,987.30
2018-03-17T07:49:36.262Z,987.24
2018-03-17T07:50:36.240Z,987.30
2018-03-17T07:52:29.121Z,987.26
2018-03-17T07:53:29.080Z,987.29
2018-03-17T07:55:21.911Z,987.30
2018-03-17T07:56:21.887Z,987.29
2018-03-17T07:58:14.780Z,987.28
2018-03-17T07:59:14.708Z,987.27
2018-03-17T08:01:07.584Z,987.24
2018-03-17T08:02:07.523Z,987.27
2018-03-17T08:04:00.385Z,987.21
2018-03-17T08:05:00.348Z,987.20
2018-03-17T08:06:53.188Z,987.16
2018-03-17T08:07:53.212Z,987.21
2018-03-17T08:09:46.031Z,987.11
2018-03-17T08:10:45.990Z,987.18
2018-03-17T08:12:38.831Z,987.15
2018-03-17T08:13:38.810Z,987.19
2018-03-17T08:15:31.672Z,987.15
2018-03-17T08:16:31.633Z,987.19
2018-03-17T08:18:24.478Z,987.18
2018-03-17T08:19:24.465Z,987.18
2018-03-17T08:21:17.317Z,987.16
2018-03-17T08:22:17.278Z,987.12
2018-03-17T08:24:10.126Z,987.13
2018-03-17T08:25:10.100Z,987.19
2018-03-17T08:27:02.971Z,987.09
2018-03-17T08:28:02.928Z,987.08
2018-03-17T08:29:55.774Z,987.03
2018-03-17T08:30:55.749Z,987.08
2018-03-17T08:32:48.609Z,987.02
2018-03-17T08:33:48.576Z,987.03
2018-03-17T08:35:41.414Z,986.97
2018-03-17T08:36:41.390Z,986.99
2018-03-17T08:38:34.251Z,986.95
2018-03-17T08:39:34.209Z,986.90
2018-03-17T08:41:28.046Z,986.91
2018-03-17T08:42:28.024Z,986.87
2018-03-17T08:44:20.884Z,986.89
2018-03-17T08:45:20.845Z,986.89
2018-03-17T08:47:13.690Z,986.90
2018-03-17T08:48:13.669Z,986.90
2018-03-17T08:50:06.528Z,986.87
2018-03-17T08:51:06.494Z,986.84
2018-03-17T08:52:59.336Z,986.79
2018-03-17T08:53:59.317Z,986.84
2018-03-17T08:55:52.176Z,986.86
2018-03-17T08:56:52.135Z,986.84
2018-03-17T08:58:45.006Z,986.91
2018-03-17T08:59:44.958Z,986.86
2018-03-17T09:01:37.820Z,986.85
2018-03-17T09:02:37.780Z,986.85
2018-03-17T09:04:31.126Z,986.87
2018-03-17T09:05:31.104Z,986.89
2018-03-17T09:07:24.040Z,986.89
2018-03-17T09:08:23.922Z,986.85
2018-03-17T09:10:16.768Z,986.91
2018-03-17T09:11:16.747Z,986.88
2018-03-17T09:13:09.597Z,986.84
2018-03-17T09:14:09.566Z,986.87
2018-03-17T09:16:02.408Z,986.79
2018-03-17T09:17:02.380Z,986.82
2018-03-17T09:18:55.249Z,986.82
2018-03-17T09:19:55.200Z,986.80
2018-03-17T09:21:48.042Z,986.84
2018-03-17T09:22:48.019Z,986.83
2018-03-17T09:24:40.880Z,986.82
2018-03-17T09:25:40.840Z,986.85
2018-03-17T09:27:33.712Z,986.75
2018-03-17T09:28:33.687Z,986.75
2018-03-17T09:30:26.570Z,986.78
2018-03-17T09:31:26.513Z,986.70
2018-03-17T09:33:19.359Z,986.74
2018-03-17T09:34:19.336Z,986.71
2018-03-17T09:36:12.273Z,986.75
2018-03-17T09:37:12.182Z,986.75
2018-03-17T09:39:05.004Z,986.70
2018-03-17T09:40:04.979Z,986.76
2018-03-17T09:41:57.841Z,986.74
2018-03-17T09:42:57.804Z,986.73
2018-03-17T09:44:50.649Z,986.70
2018-03-17T09:45:50.636Z,986.72
2018-03-17T09:47:43.988Z,986.72
2018-03-17T09:48:43.942Z,986.66
2018-03-17T09:50:36.787Z,986.59
2018-03-17T09:51:36.763Z,986.62
2018-03-17T09:53:30.119Z,986.61
2018-03-17T09:54:30.077Z,986.59
2018-03-17T09:56:23.436Z,986.53
2018-03-17T09:57:23.418Z,986.58
2018-03-17T09:59:16.780Z,986.63
2018-03-17T10:00:16.727Z,986.63
2018-03-17T10:02:09.577Z,986.62
2018-03-17T10:03:09.552Z,986.55
2018-03-17T10:05:02.423Z,986.56
2018-03-17T10:06:02.380Z,986.60
2018-03-17T10:07:55.787Z,986.60
2018-03-17T10:08:55.764Z,986.54
2018-03-17T10:10:48.630Z,986.57
2018-03-17T10:11:48.596Z,986.55
2018-03-17T10:13:41.444Z,986.61
2018-03-17T10:14:41.415Z,986.60
2018-03-17T10:16:34.275Z,986.61
2018-03-17T10:17:34.267Z,986.63
2018-03-17T10:19:27.084Z,986.57
2018-03-17T10:20:27.080Z,986.59
2018-03-17T10:22:19.930Z,986.53
2018-03-17T10:23:19.886Z,986.47
2018-03-17T10:25:12.734Z,986.52
2018-03-17T10:26:12.710Z,986.49
2018-03-17T10:28:06.067Z,986.43
2018-03-17T10:29:06.024Z,986.48
2018-03-17T10:30:58.873Z,986.48
2018-03-17T10:31:58.850Z,986.47
2018-03-17T10:33:51.725Z,986.48
2018-03-17T10:34:51.691Z,986.49
2018-03-17T10:36:44.560Z,986.46
2018-03-17T10:37:44.528Z,986.50
2018-03-17T10:39:37.387Z,986.42
2018-03-17T10:40:37.346Z,986.50
2018-03-17T10:42:30.698Z,986.45
2018-03-17T10:43:30.674Z,986.42
2018-03-17T10:45:23.536Z,986.48
2018-03-17T10:46:23.496Z,986.49
2018-03-17T10:48:16.838Z,986.46
2018-03-17T10:49:16.815Z,986.48
2018-03-17T10:51:09.751Z,986.40
2018-03-17T10:52:09.644Z,986.44
2018-03-17T10:54:02.493Z,986.39
2018-03-17T10:55:02.467Z,986.36
2018-03-17T10:56:55.828Z,986.32
2018-03-17T10:57:55.789Z,986.28
2018-03-17T10:59:48.636Z,986.28
2018-03-17T11:00:48.611Z,986.23
2018-03-17T11:02:42.014Z,986.30
2018-03-17T11:03:41.931Z,986.25
2018-03-17T11:05:34.814Z,986.31
2018-03-17T11:06:34.775Z,986.31
2018-03-17T11:08:27.653Z,986.23
2018-03-17T11:09:27.598Z,986.27
2018-03-17T11:11:20.451Z,986.22
2018-03-17T11:12:20.424Z,986.28
2018-03-17T11:14:13.290Z,986.30
2018-03-17T11:15:13.246Z,986.28
2018-03-17T11:17:06.600Z,986.26
2018-03-17T11:18:06.586Z,986.28
2018-03-17T11:19:59.452Z,986.27
2018-03-17T11:20:59.420Z,986.33
2018-03-17T11:22:52.356Z,986.25
2018-03-17T11:23:52.322Z,986.22
2018-03-17T11:25:45.232Z,986.29
2018-03-17T11:26:45.146Z,986.25
2018-03-17T11:28:39.072Z,986.16
2018-03-17T11:29:38.459Z,986.26
2018-03-17T11:31:31.345Z,986.25
2018-03-17T11:32:31.298Z,986.21
2018-03-17T11:34:24.142Z,986.22
2018-03-17T11:35:24.119Z,986.18
2018-03-17T11:37:16.976Z,986.14
2018-03-17T11:38:16.945Z,986.16
2018-03-17T11:40:09.791Z,986.18
2018-03-17T11:41:09.782Z,986.15
2018-03-17T11:43:03.119Z,986.24
2018-03-17T11:44:03.082Z,986.22
2018-03-17T11:45:56.465Z,986.20
2018-03-17T11:46:56.436Z,986.27
2018-03-17T11:48:49.327Z,986.23
2018-03-17T11:49:49.280Z,986.23
2018-03-17T11:51:42.128Z,986.20
2018-03-17T11:52:42.104Z,986.24
2018-03-17T11:54:35.015Z,986.21
2018-03-17T11:55:34.929Z,986.27
2018-03-17T11:57:27.800Z,986.20
2018-03-17T11:58:27.750Z,986.19
2018-03-17T12:00:20.620Z,986.16
2018-03-17T12:01:20.584Z,986.15
2018-03-17T12:03:13.427Z,986.20
2018-03-17T12:04:13.405Z,986.19
2018-03-17T12:06:06.260Z,986.23
2018-03-17T12:07:06.221Z,986.26
2018-03-17T12:08:59.555Z,986.22
2018-03-17T12:09:59.535Z,986.21
2018-03-17T12:11:52.926Z,986.25
2018-03-17T12:12:52.890Z,986.16
2018-03-17T12:14:46.240Z,986.21
2018-03-17T12:15:46.214Z,986.16
2018-03-17T12:17:39.099Z,986.21
2018-03-17T12:18:39.045Z,986.16
2018-03-17T12:20:31.904Z,986.15
2018-03-17T12:21:31.867Z,986.18
2018-03-17T12:23:24.728Z,986.14
2018-03-17T12:24:24.689Z,986.08
2018-03-17T12:26:17.534Z,986.07
2018-03-17T12:27:17.510Z,986.03
2018-03-17T12:29:10.379Z,986.06
2018-03-17T12:30:10.335Z,986.06
2018-03-17T12:32:03.183Z,986.03
2018-03-17T12:33:03.157Z,986.06
2018-03-17T12:34:56.026Z,985.96
2018-03-17T12:35:55.988Z,985.94
2018-03-17T12:37:48.828Z,985.96
2018-03-17T12:38:48.801Z,986.01
2018-03-17T12:40:41.667Z,986.02
2018-03-17T12:41:41.624Z,985.98
2018-03-17T12:43:34.464Z,986.00
2018-03-17T12:44:34.439Z,985.99
2018-03-17T12:46:27.344Z,985.99
2018-03-17T12:47:27.265Z,985.95
2018-03-17T12:49:20.107Z,985.90
2018-03-17T12:50:20.087Z,985.86
2018-03-17T12:52:12.949Z,985.90
2018-03-17T12:53:12.913Z,985.88
2018-03-17T12:55:05.756Z,985.83
2018-03-17T12:56:05.732Z,985.82
2018-03-17T12:57:58.594Z,985.81
2018-03-17T12:58:58.557Z,985.75
2018-03-17T13:00:51.400Z,985.80
2018-03-17T13:01:51.377Z,985.76
2018-03-17T13:03:44.777Z,985.80
2018-03-17T13:04:44.729Z,985.78
2018-03-17T13:06:38.088Z,985.85
2018-03-17T13:07:38.065Z,985.82
2018-03-17T13:09:30.923Z,985.82
2018-03-17T13:10:30.888Z,985.82
2018-03-17T13:12:23.731Z,985.83
2018-03-17T13:13:23.706Z,985.83
2018-03-17T13:15:16.647Z,985.82
2018-03-17T13:16:16.534Z,985.83
2018-03-17T13:18:09.877Z,985.84
2018-03-17T13:19:09.857Z,985.91
2018-03-17T13:21:02.717Z,985.87
2018-03-17T13:22:02.684Z,985.86
2018-03-17T13:23:56.028Z,985.86
2018-03-17T13:24:56.006Z,985.85
2018-03-17T13:26:48.878Z,985.90
2018-03-17T13:27:48.838Z,985.90
2018-03-17T13:29:42.174Z,985.88
2018-03-17T13:30:42.149Z,985.90
2018-03-17T13:32:35.505Z,985.89
2018-03-17T13:33:35.468Z,985.90
2018-03-17T13:35:28.316Z,985.91
2018-03-17T13:36:28.288Z,985.88
2018-03-17T13:38:21.197Z,985.87
2018-03-17T13:39:21.109Z,985.87
2018-03-17T13:41:13.955Z,985.90
2018-03-17T13:42:13.931Z,985.79
2018-03-17T13:44:07.339Z,985.85
2018-03-17T13:45:07.240Z,985.85
2018-03-17T13:47:00.088Z,985.93
2018-03-17T13:48:00.064Z,985.90
2018-03-17T13:49:53.432Z,985.86
2018-03-17T13:50:53.402Z,985.84
2018-03-17T13:52:46.726Z,985.82
2018-03-17T13:53:46.722Z,985.82
2018-03-17T13:55:40.054Z,985.75
2018-03-17T13:56:40.027Z,985.77
2018-03-17T13:58:32.873Z,985.80
2018-03-17T13:59:32.836Z,985.81
2018-03-17T14:01:25.695Z,985.80
2018-03-17T14:02:25.656Z,985.84
2018-03-17T14:04:19.001Z,985.85
2018-03-17T14:05:18.979Z,985.80
2018-03-17T14:07:11.850Z,985.74
2018-03-17T14:08:11.802Z,985.73
2018-03-17T14:10:05.143Z,985.77
2018-03-17T14:11:05.121Z,985.77
2018-03-17T14:12:58.468Z,985.79
2018-03-17T14:13:58.431Z,985.81
2018-03-17T14:15:51.310Z,985.86
2018-03-17T14:16:51.251Z,985.83
2018-03-17T14:18:44.620Z,985.81
2018-03-17T14:19:44.581Z,985.81
2018-03-17T14:21:38.000Z,985.93
2018-03-17T14:22:37.889Z,985.90
2018-03-17T14:24:30.757Z,985.93
2018-03-17T14:25:30.717Z,985.89
2018-03-17T14:27:23.565Z,985.89
2018-03-17T14:28:23.542Z,985.92
2018-03-17T14:30:16.944Z,985.95
2018-03-17T14:31:16.860Z,985.91
2018-03-17T14:33:09.702Z,985.86
2018-03-17T14:34:09.679Z,985.93
2018-03-17T14:36:03.034Z,985.94
2018-03-17T14:37:02.993Z,985.99
2018-03-17T14:38:55.842Z,986.04
2018-03-17T14:39:55.825Z,986.01
2018-03-17T14:41:48.671Z,985.95
2018-03-17T14:42:48.632Z,986.10
2018-03-17T14:44:41.976Z,986.12
2018-03-17T14:45:41.952Z,986.06
2018-03-17T14:47:35.319Z,986.06
2018-03-17T14:48:35.276Z,986.12
2018-03-17T14:50:28.606Z,986.06
2018-03-17T14:51:28.583Z,986.06
2018-03-17T14:53:21.445Z,986.11
2018-03-17T14:54:21.408Z,986.11
2018-03-17T14:56:14.743Z,986.14
2018-03-17T14:57:14.719Z,986.17
2018-03-17T14:59:07.578Z,986.15
2018-03-17T15:00:07.538Z,986.12
2018-03-17T15:02:00.379Z,986.14
2018-03-17T15:03:00.368Z,986.12
2018-03-17T15:04:53.293Z,986.07
2018-03-17T15:05:53.174Z,986.06
2018-03-17T15:07:46.015Z,986.03
2018-03-17T15:08:45.994Z,986.03
2018-03-17T15:10:38.946Z,986.02
2018-03-17T15:11:38.815Z,986.06
2018-03-17T15:13:31.663Z,986.09
2018-03-17T15:14:31.636Z,986.11
2018-03-17T15:16:24.502Z,986.03
2018-03-17T15:17:24.462Z,986.14
2018-03-17T15:19:17.302Z,986.19
2018-03-17T15:20:17.281Z,986.16
2018-03-17T15:22:10.173Z,986.17
2018-03-17T15:23:10.102Z,986.17
2018-03-17T15:25:02.947Z,986.19
2018-03-17T15:26:02.925Z,986.14
2018-03-17T15:27:55.781Z,986.09
2018-03-17T15:28:55.747Z,986.13
2018-03-17T15:30:49.087Z,986.12
2018-03-17T15:31:49.055Z,986.13
2018-03-17T15:33:41.918Z,986.11
2018-03-17T15:34:41.877Z,986.13
2018-03-17T15:36:34.713Z,986.13
2018-03-17T15:37:34.692Z,986.13
2018-03-17T15:39:28.043Z,986.15
2018-03-17T15:40:28.007Z,986.09
2018-03-17T15:42:20.846Z,986.09
2018-03-17T15:43:20.824Z,986.10
2018-03-17T15:45:14.185Z,986.09
2018-03-17T15:46:14.169Z,986.03
2018-03-17T15:48:07.480Z,986.10
2018-03-17T15:49:07.456Z,986.12
2018-03-17T15:51:00.807Z,986.14
2018-03-17T15:52:00.763Z,986.17
2018-03-17T15:53:54.105Z,986.12
2018-03-17T15:54:54.079Z,986.12
2018-03-17T15:56:46.936Z,986.15
2018-03-17T15:57:46.899Z,986.15
2018-03-17T15:59:39.739Z,986.09
2018-03-17T16:00:39.713Z,986.09
2018-03-17T16:02:32.572Z,986.15
2018-03-17T16:03:32.539Z,986.10
2018-03-17T16:05:25.372Z,986.11
2018-03-17T16:06:25.350Z,986.17
2018-03-17T16:08:18.214Z,986.15
2018-03-17T16:09:18.166Z,986.19
2018-03-17T16:11:11.019Z,986.18
2018-03-17T16:12:11.005Z,986.20
2018-03-17T16:14:03.850Z,986.13
2018-03-17T16:15:03.810Z,986.18
2018-03-17T16:16:56.660Z,986.19
2018-03-17T16:17:56.630Z,986.16
2018-03-17T16:19:49.515Z,986.18
2018-03-17T16:20:49.454Z,986.18
2018-03-17T16:22:42.304Z,986.22
2018-03-17T16:23:42.273Z,986.25
2018-03-17T16:25:35.165Z,986.25
2018-03-17T16:26:35.095Z,986.28
2018-03-17T16:28:27.933Z,986.27
2018-03-17T16:29:27.911Z,986.29
2018-03-17T16:31:20.768Z,986.33
2018-03-17T16:32:20.742Z,986.32
2018-03-17T16:34:13.574Z,986.25
2018-03-17T16:35:13.552Z,986.28
2018-03-17T16:37:06.439Z,986.30
2018-03-17T16:38:06.373Z,986.34
2018-03-17T16:39:59.215Z,986.30
2018-03-17T16:40:59.190Z,986.33
2018-03-17T16:42:52.047Z,986.30
2018-03-17T16:43:52.011Z,986.30
2018-03-17T16:45:44.850Z,986.37
2018-03-17T16:46:44.844Z,986.37
2018-03-17T16:48:37.694Z,986.32
2018-03-17T16:49:37.650Z,986.36
2018-03-17T16:51:30.490Z,986.35
2018-03-17T16:52:30.465Z,986.38
2018-03-17T16:54:23.326Z,986.41
2018-03-17T16:55:23.288Z,986.36
2018-03-17T16:57:16.132Z,986.42
2018-03-17T16:58:16.106Z,986.42
2018-03-17T17:00:08.964Z,986.49
2018-03-17T17:01:08.921Z,986.40
2018-03-17T17:03:01.764Z,986.41
2018-03-17T17:04:01.744Z,986.38
2018-03-17T17:05:54.599Z,986.40
2018-03-17T17:06:54.558Z,986.41
2018-03-17T17:08:47.399Z,986.45
2018-03-17T17:09:47.374Z,986.43
2018-03-17T17:11:40.244Z,986.52
2018-03-17T17:12:40.205Z,986.51
2018-03-17T17:14:33.053Z,986.53
2018-03-17T17:15:33.024Z,986.50
2018-03-17T17:17:25.923Z,986.53
2018-03-17T17:18:25.882Z,986.49
2018-03-17T17:20:18.726Z,986.56
2018-03-17T17:21:18.702Z,986.59
2018-03-17T17:23:11.565Z,986.60
2018-03-17T17:24:11.521Z,986.67
2018-03-17T17:26:04.368Z,986.62
2018-03-17T17:27:04.336Z,986.71
2018-03-17T17:28:57.200Z,986.73
2018-03-17T17:29:57.161Z,986.65
2018-03-17T17:31:50.000Z,986.71
2018-03-17T17:32:49.975Z,986.74
2018-03-17T17:34:42.831Z,986.77
2018-03-17T17:35:42.792Z,986.80
2018-03-17T17:37:35.637Z,986.77
2018-03-17T17:38:35.612Z,986.81
2018-03-17T17:40:28.473Z,986.86
2018-03-17T17:41:28.430Z,986.90
2018-03-17T17:43:21.272Z,986.94
2018-03-17T17:44:21.251Z,986.96
2018-03-17T17:46:14.110Z,986.94
2018-03-17T17:47:14.071Z,986.98
2018-03-17T17:49:06.910Z,986.98
2018-03-17T17:50:06.883Z,987.03
2018-03-17T17:51:59.742Z,986.91
2018-03-17T17:52:59.705Z,987.03
2018-03-17T17:54:52.546Z,987.04
2018-03-17T17:55:52.522Z,987.02
2018-03-17T17:57:45.378Z,987.01